sensor_id;sensor_type;location;lat;lon;timestamp;temperature;humidity
6740;DHT22;3407;49.882;10.920;2023-06-14T00:01:20;15.40;99.90
6740;DHT22;3407;49.882;10.920;2023-06-14T00:06:17;15.20;99.90
6740;DHT22;3407;49.882;10.920;2023-06-14T00:11:13;15.10;99.90
6740;DHT22;3407;49.882;10.920;2023-06-14T00:16:08;15.00;99.90
6740;DHT22;3407;49.882;10.920;2023-06-14T00:21:04;15.00;99.90
6740;DHT22;3407;49.882;10.920;2023-06-14T00:26:00;15.10;99.90
6740;DHT22;3407;49.882;10.920;2023-06-14T00:30:55;15.20;99.90
6740;DHT22;3407;49.882;10.920;2023-06-14T00:35:51;15.30;99.90
6740;DHT22;3407;49.882;10.920;2023-06-14T00:40:49;15.20;99.90
6740;DHT22;3407;49.882;10.920;2023-06-14T00:45:44;15.20;99.90
6740;DHT22;3407;49.882;10.920;2023-06-14T00:50:40;15.10;99.90
6740;DHT22;3407;49.882;10.920;2023-06-14T00:55:36;14.90;99.90
6740;DHT22;3407;49.882;10.920;2023-06-14T01:00:31;14.70;99.90
6740;DHT22;3407;49.882;10.920;2023-06-14T01:05:27;14.70;99.90
6740;DHT22;3407;49.882;10.920;2023-06-14T01:15:37;14.60;99.90
6740;DHT22;3407;49.882;10.920;2023-06-14T01:20:34;14.60;99.90
6740;DHT22;3407;49.882;10.920;2023-06-14T01:25:33;14.70;99.90
6740;DHT22;3407;49.882;10.920;2023-06-14T01:30:29;14.70;99.90
6740;DHT22;3407;49.882;10.920;2023-06-14T01:35:25;14.80;99.90
6740;DHT22;3407;49.882;10.920;2023-06-14T01:40:21;14.80;99.90
6740;DHT22;3407;49.882;10.920;2023-06-14T01:45:19;14.80;99.90
6740;DHT22;3407;49.882;10.920;2023-06-14T01:50:15;14.80;99.90
6740;DHT22;3407;49.882;10.920;2023-06-14T01:55:10;14.80;99.90
6740;DHT22;3407;49.882;10.920;2023-06-14T02:00:06;14.70;99.90
6740;DHT22;3407;49.882;10.920;2023-06-14T02:05:06;14.70;99.90
6740;DHT22;3407;49.882;10.920;2023-06-14T02:10:02;14.70;99.90
6740;DHT22;3407;49.882;10.920;2023-06-14T02:14:58;14.60;99.90
6740;DHT22;3407;49.882;10.920;2023-06-14T02:19:53;14.60;99.90
6740;DHT22;3407;49.882;10.920;2023-06-14T02:24:49;14.60;99.90
6740;DHT22;3407;49.882;10.920;2023-06-14T02:29:45;14.60;99.90
6740;DHT22;3407;49.882;10.920;2023-06-14T02:34:40;14.50;99.90
6740;DHT22;3407;49.882;10.920;2023-06-14T02:39:38;14.50;99.90
6740;DHT22;3407;49.882;10.920;2023-06-14T02:44:33;14.50;99.90
6740;DHT22;3407;49.882;10.920;2023-06-14T02:49:28;14.40;99.90
6740;DHT22;3407;49.882;10.920;2023-06-14T02:54:25;14.30;99.90
6740;DHT22;3407;49.882;10.920;2023-06-14T02:59:20;14.30;99.90
6740;DHT22;3407;49.882;10.920;2023-06-14T03:04:16;14.20;99.90
6740;DHT22;3407;49.882;10.920;2023-06-14T03:09:12;14.20;99.90
6740;DHT22;3407;49.882;10.920;2023-06-14T03:14:07;14.20;99.90
6740;DHT22;3407;49.882;10.920;2023-06-14T03:19:03;14.10;99.90
6740;DHT22;3407;49.882;10.920;2023-06-14T03:23:59;14.20;99.90
6740;DHT22;3407;49.882;10.920;2023-06-14T03:28:54;14.10;99.90
6740;DHT22;3407;49.882;10.920;2023-06-14T03:33:50;14.10;99.90
6740;DHT22;3407;49.882;10.920;2023-06-14T03:38:45;14.10;99.90
6740;DHT22;3407;49.882;10.920;2023-06-14T03:43:41;14.20;99.90
6740;DHT22;3407;49.882;10.920;2023-06-14T03:48:36;14.20;99.90
6740;DHT22;3407;49.882;10.920;2023-06-14T03:53:32;14.30;99.90
6740;DHT22;3407;49.882;10.920;2023-06-14T03:58:28;14.40;99.90
6740;DHT22;3407;49.882;10.920;2023-06-14T04:03:23;14.60;99.90
6740;DHT22;3407;49.882;10.920;2023-06-14T04:08:20;14.70;99.90
6740;DHT22;3407;49.882;10.920;2023-06-14T04:13:17;14.90;99.90
6740;DHT22;3407;49.882;10.920;2023-06-14T04:18:13;15.10;99.90
6740;DHT22;3407;49.882;10.920;2023-06-14T04:23:16;15.40;99.90
6740;DHT22;3407;49.882;10.920;2023-06-14T04:28:13;15.70;99.90
6740;DHT22;3407;49.882;10.920;2023-06-14T04:33:11;16.00;99.90
6740;DHT22;3407;49.882;10.920;2023-06-14T04:38:06;16.30;99.90
6740;DHT22;3407;49.882;10.920;2023-06-14T04:43:05;16.70;99.90
6740;DHT22;3407;49.882;10.920;2023-06-14T04:48:02;16.90;99.90
6740;DHT22;3407;49.882;10.920;2023-06-14T04:52:57;17.40;99.90
6740;DHT22;3407;49.882;10.920;2023-06-14T04:57:55;19.10;99.90
6740;DHT22;3407;49.882;10.920;2023-06-14T05:02:50;21.30;99.90
6740;DHT22;3407;49.882;10.920;2023-06-14T05:07:46;22.70;95.80
6740;DHT22;3407;49.882;10.920;2023-06-14T05:12:41;23.30;77.60
6740;DHT22;3407;49.882;10.920;2023-06-14T05:17:38;23.10;69.50
6740;DHT22;3407;49.882;10.920;2023-06-14T05:22:35;23.20;68.90
6740;DHT22;3407;49.882;10.920;2023-06-14T05:27:31;23.70;62.10
6740;DHT22;3407;49.882;10.920;2023-06-14T05:32:26;23.70;58.70
6740;DHT22;3407;49.882;10.920;2023-06-14T05:37:22;21.90;61.80
6740;DHT22;3407;49.882;10.920;2023-06-14T05:42:17;20.20;74.70
6740;DHT22;3407;49.882;10.920;2023-06-14T05:47:13;19.00;86.30
6740;DHT22;3407;49.882;10.920;2023-06-14T05:52:09;19.10;93.60
6740;DHT22;3407;49.882;10.920;2023-06-14T05:57:07;19.20;94.60
6740;DHT22;3407;49.882;10.920;2023-06-14T06:02:02;19.30;94.80
6740;DHT22;3407;49.882;10.920;2023-06-14T06:06:58;19.40;95.10
6740;DHT22;3407;49.882;10.920;2023-06-14T06:11:53;19.70;94.30
6740;DHT22;3407;49.882;10.920;2023-06-14T06:16:49;19.90;93.80
6740;DHT22;3407;49.882;10.920;2023-06-14T06:21:44;20.10;92.10
6740;DHT22;3407;49.882;10.920;2023-06-14T06:26:40;20.30;90.00
6740;DHT22;3407;49.882;10.920;2023-06-14T06:31:36;20.40;90.40
6740;DHT22;3407;49.882;10.920;2023-06-14T06:36:31;21.00;87.30
6740;DHT22;3407;49.882;10.920;2023-06-14T06:41:27;21.80;81.40
6740;DHT22;3407;49.882;10.920;2023-06-14T06:46:22;22.50;70.20
6740;DHT22;3407;49.882;10.920;2023-06-14T06:51:18;22.90;67.20
6740;DHT22;3407;49.882;10.920;2023-06-14T06:56:13;22.50;66.20
6740;DHT22;3407;49.882;10.920;2023-06-14T07:01:09;22.80;62.70
6740;DHT22;3407;49.882;10.920;2023-06-14T07:06:04;23.10;60.40
6740;DHT22;3407;49.882;10.920;2023-06-14T07:11:00;23.00;54.10
6740;DHT22;3407;49.882;10.920;2023-06-14T07:15:58;22.60;50.50
6740;DHT22;3407;49.882;10.920;2023-06-14T07:20:54;22.90;51.90
6740;DHT22;3407;49.882;10.920;2023-06-14T07:25:49;23.30;45.10
6740;DHT22;3407;49.882;10.920;2023-06-14T07:30:45;23.60;40.80
6740;DHT22;3407;49.882;10.920;2023-06-14T07:35:41;23.80;38.20
6740;DHT22;3407;49.882;10.920;2023-06-14T07:40:36;24.10;33.80
6740;DHT22;3407;49.882;10.920;2023-06-14T07:45:32;23.70;34.40
6740;DHT22;3407;49.882;10.920;2023-06-14T07:50:27;23.80;32.00
6740;DHT22;3407;49.882;10.920;2023-06-14T07:55:23;23.80;29.60
6740;DHT22;3407;49.882;10.920;2023-06-14T08:00:20;23.70;29.60
6740;DHT22;3407;49.882;10.920;2023-06-14T08:05:16;24.10;28.40
6740;DHT22;3407;49.882;10.920;2023-06-14T08:10:12;23.90;26.70
6740;DHT22;3407;49.882;10.920;2023-06-14T08:15:07;23.70;26.60
6740;DHT22;3407;49.882;10.920;2023-06-14T08:20:04;24.00;24.80
6740;DHT22;3407;49.882;10.920;2023-06-14T08:25:01;23.50;26.30
6740;DHT22;3407;49.882;10.920;2023-06-14T08:29:56;24.20;25.30
6740;DHT22;3407;49.882;10.920;2023-06-14T08:34:52;25.20;24.10
6740;DHT22;3407;49.882;10.920;2023-06-14T08:39:47;25.20;22.70
6740;DHT22;3407;49.882;10.920;2023-06-14T08:44:43;25.90;21.20
6740;DHT22;3407;49.882;10.920;2023-06-14T08:49:40;25.60;19.50
6740;DHT22;3407;49.882;10.920;2023-06-14T08:54:41;26.00;19.20
6740;DHT22;3407;49.882;10.920;2023-06-14T08:59:46;26.20;17.30
6740;DHT22;3407;49.882;10.920;2023-06-14T09:04:42;27.30;14.40
6740;DHT22;3407;49.882;10.920;2023-06-14T09:09:41;27.60;12.80
6740;DHT22;3407;49.882;10.920;2023-06-14T09:14:37;28.00;8.60
6740;DHT22;3407;49.882;10.920;2023-06-14T09:19:35;27.10;8.00
6740;DHT22;3407;49.882;10.920;2023-06-14T09:24:31;27.60;6.70
6740;DHT22;3407;49.882;10.920;2023-06-14T09:29:27;27.10;6.50
6740;DHT22;3407;49.882;10.920;2023-06-14T09:34:24;26.10;5.40
6740;DHT22;3407;49.882;10.920;2023-06-14T09:39:19;24.70;9.00
6740;DHT22;3407;49.882;10.920;2023-06-14T09:44:15;23.60;10.60
6740;DHT22;3407;49.882;10.920;2023-06-14T09:49:11;23.60;14.50
6740;DHT22;3407;49.882;10.920;2023-06-14T09:54:07;24.20;10.90
6740;DHT22;3407;49.882;10.920;2023-06-14T09:59:05;26.30;8.60
6740;DHT22;3407;49.882;10.920;2023-06-14T10:04:05;27.50;3.90
6740;DHT22;3407;49.882;10.920;2023-06-14T10:09:04;25.70;3.40
6740;DHT22;3407;49.882;10.920;2023-06-14T10:14:02;25.50;6.90
6740;DHT22;3407;49.882;10.920;2023-06-14T10:19:13;26.00;4.70
6740;DHT22;3407;49.882;10.920;2023-06-14T10:24:15;26.00;5.80
6740;DHT22;3407;49.882;10.920;2023-06-14T10:29:11;25.80;3.60
6740;DHT22;3407;49.882;10.920;2023-06-14T10:34:06;24.50;3.30
6740;DHT22;3407;49.882;10.920;2023-06-14T10:39:08;26.00;6.80
6740;DHT22;3407;49.882;10.920;2023-06-14T10:49:17;27.40;1.00
6740;DHT22;3407;49.882;10.920;2023-06-14T10:54:16;27.40;2.90
6740;DHT22;3407;49.882;10.920;2023-06-14T10:59:12;28.60;1.00
6740;DHT22;3407;49.882;10.920;2023-06-14T11:04:09;26.90;1.00
6740;DHT22;3407;49.882;10.920;2023-06-14T11:09:57;25.20;1.20
6740;DHT22;3407;49.882;10.920;2023-06-14T11:14:56;24.10;3.60
6740;DHT22;3407;49.882;10.920;2023-06-14T11:20:07;24.20;5.80
6740;DHT22;3407;49.882;10.920;2023-06-14T11:25:03;25.50;3.70
6740;DHT22;3407;49.882;10.920;2023-06-14T11:30:00;25.10;3.20
6740;DHT22;3407;49.882;10.920;2023-06-14T11:34:55;24.80;2.60
6740;DHT22;3407;49.882;10.920;2023-06-14T11:39:51;24.70;3.40
6740;DHT22;3407;49.882;10.920;2023-06-14T11:44:47;25.70;1.30
6740;DHT22;3407;49.882;10.920;2023-06-14T11:49:42;25.60;1.00
6740;DHT22;3407;49.882;10.920;2023-06-14T11:54:38;27.30;1.00
6740;DHT22;3407;49.882;10.920;2023-06-14T11:59:39;31.10;1.00
6740;DHT22;3407;49.882;10.920;2023-06-14T12:04:35;31.00;1.00
6740;DHT22;3407;49.882;10.920;2023-06-14T12:09:30;28.50;1.00
6740;DHT22;3407;49.882;10.920;2023-06-14T12:14:30;26.10;1.00
6740;DHT22;3407;49.882;10.920;2023-06-14T12:19:26;26.20;1.00
6740;DHT22;3407;49.882;10.920;2023-06-14T12:24:27;26.50;1.00
6740;DHT22;3407;49.882;10.920;2023-06-14T12:29:23;29.60;1.00
6740;DHT22;3407;49.882;10.920;2023-06-14T12:34:19;29.70;1.00
6740;DHT22;3407;49.882;10.920;2023-06-14T12:39:15;27.70;1.00
6740;DHT22;3407;49.882;10.920;2023-06-14T12:44:11;26.20;1.00
6740;DHT22;3407;49.882;10.920;2023-06-14T12:49:08;25.00;1.00
6740;DHT22;3407;49.882;10.920;2023-06-14T12:54:05;24.50;1.00
6740;DHT22;3407;49.882;10.920;2023-06-14T12:59:00;24.20;1.00
6740;DHT22;3407;49.882;10.920;2023-06-14T13:03:56;24.30;1.00
6740;DHT22;3407;49.882;10.920;2023-06-14T13:08:51;25.30;1.00
6740;DHT22;3407;49.882;10.920;2023-06-14T13:13:50;26.80;1.00
6740;DHT22;3407;49.882;10.920;2023-06-14T13:18:45;29.30;1.00
6740;DHT22;3407;49.882;10.920;2023-06-14T13:23:41;28.80;1.00
6740;DHT22;3407;49.882;10.920;2023-06-14T13:28:36;27.00;1.00
6740;DHT22;3407;49.882;10.920;2023-06-14T13:33:32;26.30;1.00
6740;DHT22;3407;49.882;10.920;2023-06-14T13:38:28;25.30;1.00
6740;DHT22;3407;49.882;10.920;2023-06-14T13:43:24;24.50;1.00
6740;DHT22;3407;49.882;10.920;2023-06-14T13:48:20;24.30;1.00
6740;DHT22;3407;49.882;10.920;2023-06-14T13:53:15;24.10;1.00
